Time;durP1;ratioP1;P1;durP2;ratioP2;P2;SDS_P1;SDS_P2;PMS_P1;PMS_P2;Temp;Humidity;BMP_temperature;BMP_pressure;BME280_temperature;BME280_humidity;BME280_pressure;Samples;Min_cycle;Max_cycle;Signal;HPM_P1;HPM_P2
2023/10/26 00:01:35;;;;;;;4.97;3.57;;;10.00;99.90;;;10.16;100.00;98948.47;5074440;28;20433;-67
2023/10/26 00:04:04;;;;;;;10.40;3.83;;;10.00;99.90;;;10.12;100.00;98943.78;5072757;28;21006;-67
2023/10/26 00:06:32;;;;;;;14.30;4.87;;;10.00;99.90;;;10.17;100.00;98935.75;5074457;28;20757;-67
2023/10/26 00:09:01;;;;;;;6.27;4.07;;;10.10;99.90;;;10.11;100.00;98932.13;5073492;28;20458;-66
2023/10/26 00:11:30;;;;;;;5.80;3.90;;;10.00;99.90;;;10.17;100.00;98935.75;5073486;28;20886;-68
2023/10/26 00:14:01;;;;;;;4.93;3.47;;;10.10;99.90;;;10.20;100.00;98943.38;5070357;28;20496;-68
2023/10/26 00:16:29;;;;;;;5.10;4.13;;;10.10;99.90;;;10.18;100.00;98934.69;5074193;28;20418;-66
2023/10/26 00:19:00;;;;;;;4.97;4.17;;;10.10;99.90;;;10.09;100.00;98933.44;5073906;28;20426;-67
2023/10/26 00:21:29;;;;;;;5.37;3.90;;;10.10;99.90;;;10.17;100.00;98938.44;5073858;28;20521;-68
2023/10/26 00:23:57;;;;;;;6.13;3.90;;;10.10;99.90;;;10.10;100.00;98940.50;5073537;28;20454;-66
2023/10/26 00:26:26;;;;;;;5.80;3.87;;;10.10;99.90;;;10.15;100.00;98924.34;5068068;28;20430;-67
2023/10/26 00:28:54;;;;;;;7.43;3.77;;;10.10;99.90;;;10.13;100.00;98926.47;5075513;28;20462;-68
2023/10/26 00:31:23;;;;;;;9.73;4.30;;;10.10;99.90;;;10.18;100.00;98926.59;5082413;28;20413;-67
2023/10/26 00:33:52;;;;;;;5.47;4.10;;;10.10;99.90;;;10.07;100.00;98919.38;5079719;28;20491;-67
2023/10/26 00:36:22;;;;;;;6.47;3.97;;;10.00;99.90;;;9.98;100.00;98924.34;5074767;28;20989;-66
2023/10/26 00:38:51;;;;;;;6.17;3.93;;;10.00;99.90;;;9.99;100.00;98920.59;5072478;28;20443;-67
2023/10/26 00:41:19;;;;;;;5.20;3.80;;;9.90;99.90;;;9.94;100.00;98917.81;5060429;28;20916;-67
2023/10/26 00:43:48;;;;;;;7.33;4.23;;;9.90;99.90;;;9.91;100.00;98908.31;5079399;28;20474;-67
2023/10/26 00:46:17;;;;;;;4.67;3.20;;;9.90;99.90;;;9.96;100.00;98908.41;5071139;28;20457;-66
2023/10/26 00:48:45;;;;;;;6.57;3.70;;;9.90;99.90;;;9.85;100.00;98897.66;5072166;28;20465;-69
2023/10/26 00:51:14;;;;;;;7.93;4.33;;;9.90;99.90;;;9.95;100.00;98903.22;5073164;28;20446;-67
2023/10/26 00:53:45;;;;;;;5.23;4.53;;;9.90;99.90;;;9.84;100.00;98896.03;5068345;28;20463;-66
2023/10/26 00:56:15;;;;;;;6.25;4.60;;;9.80;99.90;;;9.85;100.00;98895.78;5063601;28;20434;-65
2023/10/26 00:58:44;;;;;;;7.10;5.07;;;9.80;99.90;;;9.85;100.00;98897.66;5060047;28;20220;-66
2023/10/26 01:01:13;;;;;;;5.97;4.53;;;9.80;99.90;;;9.82;100.00;98890.88;5071826;28;20442;-66
2023/10/26 01:03:45;;;;;;;5.13;3.50;;;9.80;99.90;;;9.85;100.00;98898.50;5067007;28;20531;-66
2023/10/26 01:06:14;;;;;;;8.00;3.70;;;9.80;99.90;;;9.89;100.00;98888.00;5069893;28;20431;-66
2023/10/26 01:08:44;;;;;;;7.55;5.75;;;9.80;99.90;;;9.80;100.00;98884.06;5079483;28;20466;-67
2023/10/26 01:11:12;;;;;;;8.63;4.07;;;9.80;99.90;;;9.78;100.00;98881.59;5077334;28;20194;-66
2023/10/26 01:13:42;;;;;;;5.37;3.90;;;9.70;99.90;;;9.70;100.00;98884.72;5069470;28;20546;-66
2023/10/26 01:16:11;;;;;;;6.10;3.93;;;9.70;99.90;;;9.68;100.00;98873.38;5071483;28;20496;-67
2023/10/26 01:18:39;;;;;;;6.53;4.50;;;9.70;99.90;;;9.67;100.00;98879.84;5072167;28;20496;-67
2023/10/26 01:21:10;;;;;;;8.93;3.70;;;9.70;99.90;;;9.69;100.00;98860.66;5072095;28;20449;-67
2023/10/26 01:23:40;;;;;;;6.37;3.57;;;9.70;99.90;;;9.61;100.00;98870.00;5057365;28;20607;-66
2023/10/26 01:26:09;;;;;;;6.03;4.60;;;9.60;99.90;;;9.59;100.00;98864.00;5068774;28;20533;-68
2023/10/26 01:28:39;;;;;;;8.40;3.53;;;9.60;99.90;;;9.57;100.00;98863.47;5072288;28;20544;-67
2023/10/26 01:31:08;;;;;;;6.87;4.20;;;9.60;99.90;;;9.57;100.00;98863.47;5069407;28;20188;-66
2023/10/26 01:33:36;;;;;;;4.30;3.33;;;9.60;99.90;;;9.60;100.00;98863.78;5072252;28;20451;-66
2023/10/26 01:36:06;;;;;;;7.97;5.22;;;9.60;99.90;;;9.59;100.00;98855.91;5073115;28;20601;-65
2023/10/26 01:38:34;;;;;;;19.53;5.60;;;9.60;99.90;;;9.55;100.00;98860.16;5069929;28;20204;-66
2023/10/26 01:41:05;;;;;;;8.40;5.07;;;9.60;99.90;;;9.59;100.00;98858.63;5071914;28;20442;-67
2023/10/26 01:43:33;;;;;;;6.57;4.97;;;9.60;99.90;;;9.59;100.00;98850.50;5072512;28;20454;-67
2023/10/26 01:46:02;;;;;;;5.30;4.50;;;9.60;99.90;;;9.54;100.00;98851.25;5058763;28;20231;-66
2023/10/26 01:48:30;;;;;;;7.40;4.43;;;9.60;99.90;;;9.60;100.00;98847.56;5072081;28;21036;-66
2023/10/26 01:50:59;;;;;;;6.32;4.22;;;9.60;99.90;;;9.56;100.00;98840.22;5076155;28;20446;-67
2023/10/26 01:53:27;;;;;;;7.40;4.43;;;9.60;99.90;;;9.62;100.00;98839.25;5087804;28;20212;-67
2023/10/26 01:55:55;;;;;;;7.70;4.63;;;9.60;99.90;;;9.65;100.00;98838.75;5065533;28;20430;-66
2023/10/26 01:58:25;;;;;;;11.50;4.80;;;9.60;99.90;;;9.66;100.00;98834.97;5075108;28;20199;-66
2023/10/26 02:00:53;;;;;;;9.87;5.97;;;9.60;99.90;;;9.65;100.00;98827.94;5072596;28;20216;-67
2023/10/26 02:03:22;;;;;;;5.15;4.55;;;9.60;99.90;;;9.62;100.00;98828.44;5070768;28;20474;-66
2023/10/26 02:05:50;;;;;;;9.07;5.87;;;9.60;99.90;;;9.66;100.00;98834.97;5071009;28;20287;-66
2023/10/26 02:08:19;;;;;;;7.20;5.00;;;9.60;99.90;;;9.69;100.00;98828.25;5072817;28;20879;-67
2023/10/26 02:10:47;;;;;;;7.80;5.30;;;9.60;99.90;;;9.63;100.00;98830.09;5074951;28;20257;-67
2023/10/26 02:13:20;;;;;;;9.97;5.20;;;9.60;99.90;;;9.64;100.00;98830.88;5076069;28;20446;-65
2023/10/26 02:15:50;;;;;;;7.97;4.43;;;9.60;99.90;;;9.63;100.00;98829.25;5075280;28;20445;-66
2023/10/26 02:18:18;;;;;;;6.97;4.70;;;9.60;99.90;;;9.65;100.00;98827.94;5066630;28;20193;-67
2023/10/26 02:20:47;;;;;;;7.93;4.35;;;9.60;99.90;;;9.67;100.00;98819.59;5073708;28;20283;-67
2023/10/26 02:23:16;;;;;;;8.33;5.33;;;9.60;99.90;;;9.61;100.00;98826.78;5067820;28;20211;-66
2023/10/26 02:25:44;;;;;;;8.05;5.25;;;9.60;99.90;;;9.66;100.00;98817.97;5078574;28;20434;-67
2023/10/26 02:28:15;;;;;;;9.30;5.20;;;9.70;99.90;;;9.67;100.00;98819.59;5085772;28;22163;-67
2023/10/26 02:30:45;;;;;;;6.60;4.37;;;9.70;99.90;;;9.62;100.00;98806.84;5070077;28;20562;-66
2023/10/26 02:33:14;;;;;;;9.40;5.65;;;9.60;99.90;;;9.61;100.00;98816.00;5064705;28;20468;-66
2023/10/26 02:35:43;;;;;;;6.95;4.90;;;9.60;99.90;;;9.62;100.00;98812.25;5080637;28;20208;-66
2023/10/26 02:38:11;;;;;;;6.07;4.60;;;9.60;99.90;;;9.64;100.00;98812.78;5072547;28;20196;-66
2023/10/26 02:40:40;;;;;;;8.35;5.43;;;9.60;99.90;;;9.63;100.00;98813.06;5072918;28;20868;-66
2023/10/26 02:43:08;;;;;;;5.57;4.70;;;9.60;99.90;;;9.68;100.00;98819.38;5067685;28;20217;-68
2023/10/26 02:45:37;;;;;;;10.80;5.80;;;9.60;99.90;;;9.63;100.00;98813.88;5076052;28;20788;-66
2023/10/26 02:48:05;;;;;;;7.60;4.80;;;9.60;99.90;;;9.58;100.00;98811.09;5077619;28;20423;-67
2023/10/26 02:50:36;;;;;;;7.80;4.47;;;9.60;99.90;;;9.65;100.00;98811.72;5069345;28;20450;-67
2023/10/26 02:53:04;;;;;;;14.23;6.43;;;9.60;99.90;;;9.68;100.00;98805.84;5082639;28;20821;-67
2023/10/26 02:55:33;;;;;;;9.57;5.80;;;9.60;99.90;;;9.67;100.00;98808.78;5077307;28;21009;-67
2023/10/26 02:58:01;;;;;;;8.20;4.67;;;9.60;99.90;;;9.65;100.00;98813.63;5063461;28;20462;-67
2023/10/26 03:00:29;;;;;;;12.23;5.17;;;9.60;99.90;;;9.64;100.00;98807.38;5069669;28;20450;-66
2023/10/26 03:02:58;;;;;;;12.30;5.30;;;9.60;99.90;;;9.67;100.00;98809.63;5085067;28;20617;-66
2023/10/26 03:05:27;;;;;;;9.75;5.65;;;9.60;99.90;;;9.67;100.00;98800.69;5082513;28;20241;-67
2023/10/26 03:07:56;;;;;;;9.98;5.57;;;9.60;99.90;;;9.69;100.00;98796.66;5081448;28;20275;-66
2023/10/26 03:10:26;;;;;;;10.93;5.10;;;9.70;99.90;;;9.71;100.00;98796.44;5065094;28;20212;-66
2023/10/26 03:12:57;;;;;;;8.67;5.57;;;9.70;99.90;;;9.73;100.00;98797.03;5070663;28;20489;-65
2023/10/26 03:15:27;;;;;;;5.90;3.70;;;9.70;99.90;;;9.65;100.00;98798.22;5072299;28;20492;-65
2023/10/26 03:17:55;;;;;;;7.10;4.73;;;9.70;99.90;;;9.68;100.00;98795.06;5069141;28;20531;-66
2023/10/26 03:20:25;;;;;;;9.68;6.03;;;9.70;99.90;;;9.66;100.00;98790.94;5072583;28;20843;-66
2023/10/26 03:22:53;;;;;;;8.90;4.60;;;9.70;99.90;;;9.69;100.00;98796.66;5067851;28;20216;-66
2023/10/26 03:25:23;;;;;;;13.30;5.20;;;9.70;99.90;;;9.76;100.00;98797.34;5074891;28;20743;-67
2023/10/26 03:27:52;;;;;;;6.30;3.97;;;9.70;99.90;;;9.71;100.00;98794.56;5073514;28;20496;-66
2023/10/26 03:30:20;;;;;;;8.30;5.10;;;9.70;99.90;;;9.77;100.00;98795.44;5071496;28;20458;-66
2023/10/26 03:35:44;;;;;;;12.33;6.47;;;9.70;99.90;;;9.77;100.00;98796.28;5331304;24;20496;-68
2023/10/26 03:38:12;;;;;;;8.97;5.30;;;9.80;99.90;;;9.73;100.00;98802.41;4832413;29;20982;-67
2023/10/26 03:40:42;;;;;;;11.37;5.77;;;9.70;99.90;;;9.80;100.00;98803.03;4838264;29;20473;-67
2023/10/26 03:43:10;;;;;;;13.90;5.17;;;9.70;99.90;;;9.79;100.00;98802.22;4815975;29;20523;-67
2023/10/26 03:45:39;;;;;;;8.60;4.83;;;9.80;99.90;;;9.80;100.00;98800.34;4807574;29;20449;-67
2023/10/26 03:48:07;;;;;;;8.40;5.20;;;9.80;99.90;;;9.87;100.00;98803.72;4807591;29;20422;-67
2023/10/26 03:50:36;;;;;;;7.50;4.80;;;9.80;99.90;;;9.88;100.00;98800.72;4826930;29;20486;-67
2023/10/26 03:53:04;;;;;;;13.37;5.83;;;9.80;99.90;;;9.78;100.00;98805.19;4802635;29;20471;-66
2023/10/26 03:55:33;;;;;;;9.33;6.10;;;9.80;99.90;;;9.79;100.00;98801.41;4807191;29;20435;-66
2023/10/26 03:58:02;;;;;;;9.37;6.20;;;9.80;99.90;;;9.82;100.00;98801.75;4821217;29;20454;-67
2023/10/26 04:00:31;;;;;;;9.80;5.80;;;9.80;99.90;;;9.81;100.00;98802.81;4807345;29;20923;-67
2023/10/26 04:02:59;;;;;;;10.07;4.87;;;9.80;99.90;;;9.82;100.00;98801.75;4818369;29;20472;-67
2023/10/26 04:05:30;;;;;;;7.17;4.93;;;9.80;99.90;;;9.78;100.00;98789.78;4799861;29;20504;-68
2023/10/26 04:08:02;;;;;;;11.70;5.93;;;9.80;99.90;;;9.74;100.00;98788.66;4807003;29;20443;-67
2023/10/26 04:10:30;;;;;;;10.00;5.53;;;9.80;99.90;;;9.72;100.00;98780.00;4806924;29;20524;-67
2023/10/26 04:12:58;;;;;;;9.57;6.00;;;9.70;99.90;;;9.71;100.00;98786.44;4800882;29;20463;-65
2023/10/26 04:15:28;;;;;;;8.90;5.23;;;9.70;99.90;;;9.68;100.00;98773.44;4809905;29;20478;-66
2023/10/26 04:17:57;;;;;;;11.95;5.70;;;9.70;99.90;;;9.69;100.00;98779.66;4801227;29;21024;-67
2023/10/26 04:20:25;;;;;;;11.00;6.00;;;9.70;99.90;;;9.63;100.00;98777.97;4807343;29;20198;-66
2023/10/26 04:22:53;;;;;;;10.10;5.90;;;9.60;99.90;;;9.68;100.00;98776.16;4806879;29;20487;-67
2023/10/26 04:25:27;;;;;;;13.33;6.87;;;9.70;99.90;;;9.61;100.00;98772.78;4813577;29;20198;-67
2023/10/26 04:28:16;;;;;;;7.93;5.30;;;9.60;99.90;;;9.60;100.00;98773.84;4806620;29;20453;-66
2023/10/26 04:30:47;;;;;;;7.93;5.88;;;9.60;99.90;;;9.68;100.00;98769.94;4809065;29;20565;-66
2023/10/26 04:33:16;;;;;;;9.83;6.03;;;9.60;99.90;;;9.75;100.00;98768.69;4811500;29;20212;-66
2023/10/26 04:35:47;;;;;;;10.68;6.25;;;9.70;99.90;;;9.71;100.00;98772.13;4789711;29;20463;-66
2023/10/26 04:38:15;;;;;;;15.10;5.20;;;9.70;99.90;;;9.70;100.00;98765.91;4808995;29;20225;-66
2023/10/26 04:40:45;;;;;;;10.60;6.63;;;9.70;99.90;;;9.64;100.00;98772.28;4807691;29;20465;-66
2023/10/26 04:43:13;;;;;;;9.80;5.00;;;9.60;99.90;;;9.60;100.00;98768.44;4810969;29;20478;-66
2023/10/26 04:45:42;;;;;;;8.33;5.33;;;9.60;99.90;;;9.58;100.00;98770.59;4801552;29;20440;-66
2023/10/26 04:48:11;;;;;;;11.70;5.50;;;9.60;99.90;;;9.58;100.00;98765.19;4809663;29;20869;-67
2023/10/26 04:50:40;;;;;;;16.00;5.40;;;9.60;99.90;;;9.53;100.00;98771.34;4821968;29;20525;-67
2023/10/26 04:53:08;;;;;;;7.97;6.37;;;9.60;99.90;;;9.58;100.00;98770.59;4812176;29;20700;-67
2023/10/26 04:55:36;;;;;;;9.13;6.68;;;9.50;99.90;;;9.54;100.00;98764.03;4806101;29;20537;-66
2023/10/26 04:58:05;;;;;;;11.67;6.23;;;9.60;99.90;;;9.58;100.00;98757.09;4805914;29;20611;-67
2023/10/26 05:00:33;;;;;;;10.77;5.40;;;9.60;99.90;;;9.62;100.00;98758.22;4820100;29;20443;-67
2023/10/26 05:03:02;;;;;;;14.90;7.17;;;9.60;99.90;;;9.49;100.00;98758.56;4803037;29;20527;-66
2023/10/26 05:05:32;;;;;;;11.15;5.43;;;9.50;99.90;;;9.60;100.00;98765.75;4796314;29;20439;-67
2023/10/26 05:08:00;;;;;;;7.78;5.35;;;9.60;99.90;;;9.50;100.00;98765.59;4807179;29;20234;-67
2023/10/26 05:10:29;;;;;;;12.52;5.22;;;9.50;99.90;;;9.43;100.00;98759.56;4814563;29;20693;-66
2023/10/26 05:12:57;;;;;;;9.23;5.37;;;9.50;99.90;;;9.42;100.00;98757.91;4811556;29;20569;-66
2023/10/26 05:15:25;;;;;;;8.95;4.22;;;9.40;99.90;;;9.50;100.00;98757.50;4816905;29;20809;-67
2023/10/26 05:17:54;;;;;;;6.97;4.20;;;9.50;99.90;;;9.50;100.00;98763.72;4809581;29;20729;-66
2023/10/26 05:20:22;;;;;;;5.50;3.10;;;9.50;99.90;;;9.53;100.00;98762.41;4812463;29;20190;-67
2023/10/26 05:22:52;;;;;;;8.23;4.38;;;9.50;99.90;;;9.46;100.00;98753.66;4800704;29;20646;-67
2023/10/26 05:25:20;;;;;;;9.13;6.30;;;9.50;99.90;;;9.53;100.00;98748.91;4805844;29;20210;-66
2023/10/26 05:27:49;;;;;;;8.60;5.05;;;9.50;99.90;;;9.50;100.00;98754.78;4814210;29;20446;-66
2023/10/26 05:30:18;;;;;;;8.52;5.18;;;9.50;99.90;;;9.46;100.00;98757.19;4806844;29;20215;-66
2023/10/26 05:32:46;;;;;;;9.80;5.07;;;9.40;99.90;;;9.41;100.00;98750.88;4804442;29;20221;-66
2023/10/26 05:35:15;;;;;;;5.28;3.80;;;9.40;99.90;;;9.45;100.00;98752.03;4812122;29;20883;-67
2023/10/26 05:37:44;;;;;;;9.02;4.93;;;9.40;99.90;;;9.50;100.00;98754.78;4807534;29;20669;-66
2023/10/26 05:40:14;;;;;;;6.73;3.60;;;9.50;99.90;;;9.43;100.00;98754.16;4810331;29;20411;-66
2023/10/26 05:42:42;;;;;;;6.47;4.30;;;9.40;99.90;;;9.42;100.00;98755.22;4805197;29;20869;-67
2023/10/26 05:45:11;;;;;;;5.90;4.18;;;9.40;99.90;;;9.46;100.00;98746.38;4806348;29;20477;-66
2023/10/26 05:47:42;;;;;;;6.07;3.67;;;9.40;99.90;;;9.47;100.00;98749.91;4805288;29;20617;-67
2023/10/26 05:50:11;;;;;;;5.72;4.05;;;9.40;99.90;;;9.47;100.00;98752.59;4810654;29;20584;-67
2023/10/26 05:52:40;;;;;;;10.27;5.00;;;9.40;99.90;;;9.43;100.00;98759.56;4808476;29;20225;-66
2023/10/26 05:55:08;;;;;;;7.95;4.70;;;9.40;99.90;;;9.45;100.00;98757.41;4816066;29;20558;-67
2023/10/26 05:57:38;;;;;;;4.75;4.07;;;9.40;99.90;;;9.45;100.00;98762.81;4811886;29;20746;-67
2023/10/26 06:00:09;;;;;;;5.00;3.97;;;9.40;99.90;;;9.45;100.00;98757.41;4811617;29;20279;-67
2023/10/26 06:02:41;;;;;;;8.77;3.30;;;9.40;99.90;;;9.50;100.00;98760.19;4808258;29;20312;-67
2023/10/26 06:05:09;;;;;;;8.70;4.60;;;9.40;99.90;;;9.49;100.00;98764.78;4805738;29;20865;-67
2023/10/26 06:07:37;;;;;;;6.10;4.70;;;9.50;99.90;;;9.50;100.00;98768.28;4813029;29;20797;-67
2023/10/26 06:10:09;;;;;;;4.57;3.33;;;9.50;99.90;;;9.42;100.00;98763.31;4807258;29;20667;-67
2023/10/26 06:12:39;;;;;;;8.65;5.43;;;9.40;99.90;;;9.52;100.00;98763.47;4813579;29;20518;-68
2023/10/26 06:15:10;;;;;;;14.23;10.43;;;9.50;99.90;;;9.42;100.00;98763.31;4806933;29;20198;-67
2023/10/26 06:17:38;;;;;;;10.70;4.63;;;9.40;99.90;;;9.51;100.00;98778.03;4813539;29;20197;-67
2023/10/26 06:20:09;;;;;;;8.23;7.33;;;9.50;99.90;;;9.56;100.00;98770.00;4806168;29;20446;-67
2023/10/26 06:22:37;;;;;;;11.23;8.90;;;9.50;99.90;;;9.50;100.00;98771.81;4813204;29;20469;-68
2023/10/26 06:25:06;;;;;;;7.38;4.22;;;9.50;99.90;;;9.56;100.00;98770.00;4808640;29;20233;-67
2023/10/26 06:27:35;;;;;;;10.40;6.30;;;9.60;99.90;;;9.49;100.00;98774.75;4801812;29;20263;-66
2023/10/26 06:30:07;;;;;;;15.50;13.30;;;9.50;99.90;;;9.55;100.00;98771.06;4805759;29;20892;-67
2023/10/26 06:32:36;;;;;;;18.15;16.23;;;9.50;99.90;;;9.53;100.00;98771.34;4808196;29;20859;-67
2023/10/26 06:35:06;;;;;;;8.17;6.97;;;9.50;99.90;;;9.55;100.00;98773.78;4810908;29;20691;-67
2023/10/26 06:37:34;;;;;;;9.67;8.73;;;9.50;99.90;;;9.65;100.00;98779.34;4807330;29;20459;-67
2023/10/26 06:40:04;;;;;;;8.37;7.47;;;9.60;99.90;;;9.61;100.00;98780.91;4805153;29;20451;-67
2023/10/26 06:42:32;;;;;;;8.85;7.50;;;9.60;99.90;;;9.52;100.00;98774.28;4807372;29;20455;-66
2023/10/26 06:45:00;;;;;;;14.33;7.80;;;9.60;99.90;;;9.49;100.00;98777.44;4813387;29;20217;-66
2023/10/26 06:47:30;;;;;;;5.67;4.73;;;9.50;99.90;;;9.53;100.00;98782.13;4809853;29;20546;-67
2023/10/26 06:49:58;;;;;;;13.47;10.87;;;9.50;99.90;;;9.55;100.00;98779.19;4817379;29;20422;-66
2023/10/26 06:52:27;;;;;;;8.80;6.20;;;9.60;99.90;;;9.55;100.00;98784.56;4811707;29;20497;-67
2023/10/26 06:54:55;;;;;;;6.90;3.63;;;9.50;99.90;;;9.67;100.00;98793.41;4806378;29;20466;-66
2023/10/26 06:57:24;;;;;;;5.50;3.23;;;9.60;99.90;;;9.64;100.00;98793.06;4816088;29;20220;-67
2023/10/26 06:59:52;;;;;;;11.60;8.63;;;9.60;99.90;;;9.60;100.00;98787.34;4814555;29;20470;-67
2023/10/26 07:02:21;;;;;;;8.60;6.43;;;9.60;99.90;;;9.67;100.00;98793.41;4809125;29;20502;-67
2023/10/26 07:04:50;;;;;;;7.73;4.33;;;9.60;99.90;;;9.67;100.00;98789.91;4815491;29;20473;-67
2023/10/26 07:07:19;;;;;;;15.93;6.97;;;9.70;99.90;;;9.62;100.00;98796.03;4815107;29;20928;-67
2023/10/26 07:09:47;;;;;;;9.70;5.15;;;9.60;99.90;;;9.65;100.00;98795.53;4811045;29;20423;-67
2023/10/26 07:12:15;;;;;;;5.13;4.13;;;9.60;99.90;;;9.73;100.00;98795.09;4808081;29;20224;-67
2023/10/26 07:14:44;;;;;;;17.47;7.37;;;9.70;99.90;;;9.72;100.00;98798.91;4805112;29;20958;-67
2023/10/26 07:17:12;;;;;;;6.30;5.30;;;9.70;99.90;;;9.70;100.00;98803.72;4810108;29;20449;-67
2023/10/26 07:19:41;;;;;;;6.90;4.30;;;9.70;99.90;;;9.75;100.00;98808.38;4812873;29;20480;-67
2023/10/26 07:22:10;;;;;;;8.20;5.20;;;9.70;99.90;;;9.71;100.00;98801.84;4807688;29;20468;-66
2023/10/26 07:24:39;;;;;;;8.00;5.53;;;9.70;99.90;;;9.78;100.00;98807.91;4819963;29;20442;-67
2023/10/26 07:27:07;;;;;;;8.97;4.60;;;9.70;99.90;;;9.82;100.00;98806.34;4817228;29;21035;-67
2023/10/26 07:29:36;;;;;;;6.33;4.33;;;9.80;99.90;;;9.85;100.00;98814.75;4813835;29;20818;-67
2023/10/26 07:32:05;;;;;;;7.13;4.33;;;9.80;99.90;;;9.77;100.00;98808.94;4815531;29;20846;-67
2023/10/26 07:34:33;;;;;;;4.75;3.63;;;9.80;99.90;;;9.86;100.00;98812.88;4807976;29;20462;-67
2023/10/26 07:37:01;;;;;;;6.67;3.10;;;9.80;99.90;;;9.88;100.00;98816.13;4816714;29;20230;-67
2023/10/26 07:39:48;;;;;;;8.50;6.03;;;9.80;99.90;;;9.84;100.00;98826.63;4812082;29;20503;-67
2023/10/26 07:42:17;;;;;;;6.90;5.00;;;9.80;99.90;;;9.86;100.00;98824.50;4802047;29;21056;-67
2023/10/26 07:44:46;;;;;;;15.87;4.50;;;9.80;99.90;;;9.92;100.00;98826.19;4808584;29;20964;-67
2023/10/26 07:47:15;;;;;;;6.63;4.03;;;9.90;99.90;;;9.96;100.00;98834.63;4802751;29;20503;-67
2023/10/26 07:49:43;;;;;;;7.13;4.40;;;9.90;99.90;;;10.04;100.00;98831.50;4810555;29;20439;-68
2023/10/26 07:52:11;;;;;;;5.93;4.20;;;9.90;99.90;;;10.01;100.00;98838.22;4807242;29;20895;-67
2023/10/26 07:54:40;;;;;;;7.57;4.17;;;10.00;99.90;;;9.96;100.00;98832.75;4808397;29;20466;-66
2023/10/26 07:57:10;;;;;;;7.13;4.47;;;9.90;99.90;;;10.00;100.00;98835.78;4807715;29;20463;-67
2023/10/26 07:59:38;;;;;;;9.53;4.07;;;9.90;99.90;;;10.03;100.00;98829.84;4813407;29;20442;-68
2023/10/26 08:02:07;;;;;;;8.30;4.20;;;9.90;99.90;;;10.07;100.00;98836.41;4818130;29;20531;-68
2023/10/26 08:04:35;;;;;;;10.17;5.63;;;10.00;99.90;;;10.14;100.00;98838.94;4800369;29;20435;-66
2023/10/26 08:07:04;;;;;;;10.33;4.97;;;10.00;99.90;;;10.10;100.00;98835.09;4806988;29;20542;-66
2023/10/26 08:09:32;;;;;;;8.10;5.00;;;10.00;99.90;;;10.13;100.00;98840.00;4812752;29;20500;-68
2023/10/26 08:12:01;;;;;;;14.13;6.57;;;10.10;99.90;;;10.15;100.00;98832.47;4806374;29;20456;-68
2023/10/26 08:14:31;;;;;;;10.70;6.00;;;10.10;99.90;;;10.19;100.00;98842.56;4807016;29;20979;-67
2023/10/26 08:17:20;;;;;;;8.73;5.27;;;10.10;99.90;;;10.29;100.00;98833.78;4805362;29;20968;-70
2023/10/26 08:19:53;;;;;;;6.07;3.30;;;10.20;99.90;;;10.26;100.00;98831.56;4812168;29;20806;-68
2023/10/26 08:22:23;;;;;;;9.70;5.33;;;10.10;99.90;;;10.22;100.00;98846.63;4803874;29;20482;-68
2023/10/26 08:24:51;;;;;;;7.63;3.83;;;10.10;99.90;;;10.30;100.00;98851.63;4805847;29;20490;-68
2023/10/26 08:27:20;;;;;;;6.17;4.13;;;10.20;99.90;;;10.29;100.00;98844.59;4812248;29;20508;-69
2023/10/26 08:29:55;;;;;;;8.60;4.80;;;10.20;99.90;;;10.32;100.00;98847.59;4834029;29;20450;-70
2023/10/26 08:32:26;;;;;;;9.67;5.43;;;10.20;99.90;;;10.45;100.00;98849.13;4802142;29;20472;-71
2023/10/26 08:34:56;;;;;;;8.80;4.03;;;10.30;99.90;;;10.37;100.00;98863.06;4810846;29;20466;-69
2023/10/26 08:37:25;;;;;;;11.47;5.37;;;10.30;99.90;;;10.45;100.00;98858.06;4818607;29;20443;-69
2023/10/26 08:39:55;;;;;;;9.40;4.93;;;10.30;99.90;;;10.54;100.00;98861.16;4807836;29;20449;-69
2023/10/26 08:42:23;;;;;;;12.43;6.33;;;10.40;99.90;;;10.56;100.00;98863.56;4805665;29;20490;-70
2023/10/26 08:44:57;;;;;;;8.80;4.67;;;10.40;99.90;;;10.59;100.00;98861.22;4811492;29;20431;-70
2023/10/26 08:47:30;;;;;;;9.00;5.10;;;10.40;99.90;;;10.56;100.00;98871.69;4805615;29;20931;-70
2023/10/26 08:50:00;;;;;;;8.27;4.83;;;10.50;99.90;;;10.65;100.00;98876.41;4802945;29;20433;-71
2023/10/26 08:52:43;;;;;;;8.87;4.90;;;10.50;99.90;;;10.63;100.00;98865.03;4807201;29;20577;-69
2023/10/26 08:55:13;;;;;;;6.10;4.47;;;10.50;99.90;;;10.71;100.00;98874.59;4808703;29;20961;-70
2023/10/26 08:57:49;;;;;;;7.60;4.43;;;10.60;99.90;;;10.61;100.00;98875.28;4809610;29;20484;-70
2023/10/26 09:00:19;;;;;;;8.30;5.43;;;10.50;99.90;;;10.66;100.00;98872.66;4801304;29;20920;-69
2023/10/26 09:02:50;;;;;;;7.33;5.33;;;10.60;99.90;;;10.64;100.00;98877.50;4813010;29;20506;-70
2023/10/26 09:05:19;;;;;;;7.33;5.63;;;10.50;99.90;;;10.77;100.00;98885.22;4810344;29;20902;-71
2023/10/26 09:07:48;;;;;;;9.10;5.47;;;10.60;99.90;;;10.83;100.00;98880.72;4810339;29;20421;-68
2023/10/26 09:10:30;;;;;;;8.77;6.40;;;10.70;99.90;;;10.96;100.00;98887.59;4805045;29;20442;-69
2023/10/26 09:13:00;;;;;;;10.50;7.37;;;10.80;99.90;;;11.01;100.00;98882.25;4809979;29;20585;-69
2023/10/26 09:15:30;;;;;;;10.03;5.87;;;10.90;99.90;;;11.06;100.00;98895.84;4805516;29;20451;-69
2023/10/26 09:18:09;;;;;;;9.37;4.77;;;10.90;99.90;;;11.15;100.00;98892.44;4805989;29;20463;-70
2023/10/26 09:20:38;;;;;;;11.00;8.03;;;10.90;99.90;;;11.03;100.00;98894.47;4803417;29;20926;-70
2023/10/26 09:23:08;;;;;;;14.17;7.70;;;10.90;99.90;;;11.10;100.00;98899.69;4808435;29;20463;-71
2023/10/26 09:25:36;;;;;;;10.20;6.50;;;10.90;99.90;;;11.17;100.00;98897.59;4804723;29;20822;-69
2023/10/26 09:28:05;;;;;;;8.10;7.27;;;11.00;99.90;;;11.32;100.00;98889.66;4808244;29;20417;-69
2023/10/26 09:30:36;;;;;;;8.53;6.93;;;11.10;99.90;;;11.38;100.00;98902.16;4804587;29;20474;-68
2023/10/26 09:33:05;;;;;;;4.93;3.83;;;11.20;99.90;;;11.19;100.00;98898.97;4818471;29;20581;-70
2023/10/26 09:35:34;;;;;;;8.50;6.70;;;11.10;99.90;;;11.15;100.00;98899.72;4821034;29;20500;-70
2023/10/26 09:38:03;;;;;;;7.97;4.10;;;11.00;99.90;;;11.18;100.00;98907.38;4817165;29;20473;-71
2023/10/26 09:40:31;;;;;;;9.07;4.93;;;11.00;99.90;;;11.31;100.00;98906.97;4812651;29;20495;-70
2023/10/26 09:42:59;;;;;;;12.90;4.67;;;11.10;99.90;;;11.26;100.00;98915.03;4815261;29;20433;-70
2023/10/26 09:45:28;;;;;;;6.77;3.50;;;11.10;99.90;;;11.08;100.00;98909.97;4815105;29;20461;-70
2023/10/26 09:48:02;;;;;;;8.87;3.80;;;11.10;99.90;;;11.03;100.00;98909.91;4819133;29;20455;-72
2023/10/26 09:50:37;;;;;;;7.87;4.70;;;11.00;99.90;;;10.98;100.00;98909.84;4821328;29;20450;-70
2023/10/26 09:53:08;;;;;;;13.30;4.67;;;10.90;99.90;;;11.00;100.00;98907.69;4820016;29;20495;-70
2023/10/26 09:55:44;;;;;;;7.20;4.07;;;10.90;99.90;;;10.94;100.00;98908.72;4807834;29;20982;-70
2023/10/26 09:58:17;;;;;;;6.27;4.23;;;10.90;99.90;;;10.87;100.00;98911.59;4807682;29;20917;-71
2023/10/26 10:00:45;;;;;;;7.30;5.00;;;10.90;99.90;;;10.84;100.00;98912.91;4809450;29;20470;-71
2023/10/26 10:03:17;;;;;;;6.77;4.73;;;10.80;99.90;;;10.85;100.00;98919.94;4805230;29;20462;-69
2023/10/26 10:05:47;;;;;;;8.63;4.67;;;10.80;99.90;;;10.95;100.00;98918.44;4804862;29;20526;-69
2023/10/26 10:09:00;;;;;;;21.87;16.80;;;10.80;99.90;;;10.99;100.00;98908.78;4808909;29;20446;-70
2023/10/26 10:11:29;;;;;;;16.67;13.57;;;10.90;99.90;;;11.10;100.00;98916.75;4804888;29;20435;-69
2023/10/26 10:13:58;;;;;;;12.10;4.60;;;10.90;99.90;;;11.13;100.00;98910.84;4805726;29;20486;-70
2023/10/26 10:16:51;;;;;;;6.67;4.83;;;10.90;99.90;;;11.13;100.00;98918.13;4804719;29;20435;-70
2023/10/26 10:19:23;;;;;;;7.57;4.40;;;11.00;99.90;;;11.14;100.00;98917.88;4802226;29;20544;-71
2023/10/26 10:21:52;;;;;;;5.27;4.57;;;11.00;99.90;;;11.18;100.00;98916.28;4806534;29;20486;-70
2023/10/26 10:24:53;;;;;;;7.00;5.30;;;11.10;99.90;;;11.16;100.00;98923.03;4807859;29;20459;-71
2023/10/26 10:27:22;;;;;;;8.60;3.80;;;11.10;99.90;;;11.11;100.00;98922.97;4809328;29;20508;-70
2023/10/26 10:29:50;;;;;;;6.67;4.27;;;11.00;99.90;;;11.07;100.00;98921.84;4813038;29;20432;-70
2023/10/26 10:32:50;;;;;;;9.90;5.90;;;11.00;99.90;;;11.14;100.00;98922.44;4806341;29;20482;-70
2023/10/26 10:35:43;;;;;;;7.40;4.13;;;11.00;99.90;;;11.18;100.00;98912.78;4812588;29;20454;-71